Terminal Aerodrome Forecast
Issued by NWS Sterling, VA

Current Version | Previous Version | Graphics & Text | Print | Product List | Glossary On
Versions: 1 2 3 4 5 6 7 8 9 10 11 12 13 14 15 16 17 18 19 20 21 22 23 24 25 26
000
FTUS41 KLWX 210851 AAA
TAFIAD
TAF AMD
KIAD 210851Z 2109/2212 00000KT P6SM OVC060
     FM211200 07006KT P6SM -SHRA OVC025
     FM211400 06005KT P6SM -SHRA OVC020
     FM211900 05005KT 6SM BR OVC008
     FM220300 32004KT P6SM BKN015
     FM220500 31005KT P6SM SCT008
     FM220900 31006KT P6SM FEW250=

USA.gov is the U.S. government's official web portal to all federal, state and local government web resources and services.